sensor_id;sensor_type;location;lat;lon;timestamp;P1;durP1;ratioP1;P2;durP2;ratioP2
61911;SDS011;49973;52.084;5.412;2022-09-09T00:02:20;3.20;;;1.17;;
61911;SDS011;49973;52.084;5.412;2022-09-09T00:04:54;1.63;;;1.17;;
61911;SDS011;49973;52.084;5.412;2022-09-09T00:07:32;2.10;;;1.10;;
61911;SDS011;49973;52.084;5.412;2022-09-09T00:10:13;8.03;;;1.60;;
61911;SDS011;49973;52.084;5.412;2022-09-09T00:12:51;5.83;;;1.43;;
61911;SDS011;49973;52.084;5.412;2022-09-09T00:15:31;5.57;;;1.87;;
61911;SDS011;49973;52.084;5.412;2022-09-09T00:18:08;2.73;;;1.47;;
61911;SDS011;49973;52.084;5.412;2022-09-09T00:20:42;4.27;;;1.80;;
61911;SDS011;49973;52.084;5.412;2022-09-09T00:23:19;8.20;;;1.97;;
61911;SDS011;49973;52.084;5.412;2022-09-09T00:25:54;4.77;;;1.83;;
61911;SDS011;49973;52.084;5.412;2022-09-09T00:28:30;3.03;;;2.00;;
61911;SDS011;49973;52.084;5.412;2022-09-09T00:31:11;2.13;;;1.80;;
61911;SDS011;49973;52.084;5.412;2022-09-09T00:33:40;4.17;;;1.97;;
61911;SDS011;49973;52.084;5.412;2022-09-09T00:36:12;4.87;;;2.23;;
61911;SDS011;49973;52.084;5.412;2022-09-09T00:38:44;3.63;;;2.10;;
61911;SDS011;49973;52.084;5.412;2022-09-09T00:41:18;3.30;;;2.40;;
61911;SDS011;49973;52.084;5.412;2022-09-09T00:43:55;6.07;;;2.57;;
61911;SDS011;49973;52.084;5.412;2022-09-09T00:49:26;3.97;;;2.63;;
61911;SDS011;49973;52.084;5.412;2022-09-09T00:52:08;4.97;;;2.73;;
61911;SDS011;49973;52.084;5.412;2022-09-09T00:54:50;5.03;;;2.40;;
61911;SDS011;49973;52.084;5.412;2022-09-09T00:57:26;2.43;;;2.17;;
61911;SDS011;49973;52.084;5.412;2022-09-09T00:59:57;5.63;;;3.20;;
61911;SDS011;49973;52.084;5.412;2022-09-09T01:02:35;4.53;;;2.37;;
61911;SDS011;49973;52.084;5.412;2022-09-09T01:05:12;2.17;;;1.73;;
61911;SDS011;49973;52.084;5.412;2022-09-09T01:07:48;5.77;;;2.17;;
61911;SDS011;49973;52.084;5.412;2022-09-09T01:10:25;3.97;;;2.17;;
61911;SDS011;49973;52.084;5.412;2022-09-09T01:13:04;5.07;;;2.00;;
61911;SDS011;49973;52.084;5.412;2022-09-09T01:15:41;5.73;;;2.20;;
61911;SDS011;49973;52.084;5.412;2022-09-09T01:18:15;5.90;;;2.30;;
61911;SDS011;49973;52.084;5.412;2022-09-09T01:20:46;3.47;;;2.10;;
61911;SDS011;49973;52.084;5.412;2022-09-09T01:23:30;5.47;;;2.83;;
61911;SDS011;49973;52.084;5.412;2022-09-09T01:26:19;4.47;;;2.77;;
61911;SDS011;49973;52.084;5.412;2022-09-09T01:28:55;4.37;;;2.50;;
61911;SDS011;49973;52.084;5.412;2022-09-09T01:31:34;5.83;;;3.10;;
61911;SDS011;49973;52.084;5.412;2022-09-09T01:34:08;10.50;;;3.20;;
61911;SDS011;49973;52.084;5.412;2022-09-09T01:36:40;4.23;;;2.80;;
61911;SDS011;49973;52.084;5.412;2022-09-09T01:39:12;4.03;;;3.03;;
61911;SDS011;49973;52.084;5.412;2022-09-09T01:41:44;9.23;;;3.50;;
61911;SDS011;49973;52.084;5.412;2022-09-09T01:44:15;10.63;;;3.50;;
61911;SDS011;49973;52.084;5.412;2022-09-09T01:46:45;10.53;;;3.33;;
61911;SDS011;49973;52.084;5.412;2022-09-09T01:49:17;9.17;;;3.70;;
61911;SDS011;49973;52.084;5.412;2022-09-09T01:51:46;6.90;;;3.00;;
61911;SDS011;49973;52.084;5.412;2022-09-09T01:54:24;5.97;;;3.50;;
61911;SDS011;49973;52.084;5.412;2022-09-09T01:57:02;9.67;;;2.90;;
61911;SDS011;49973;52.084;5.412;2022-09-09T01:59:45;7.53;;;3.37;;
61911;SDS011;49973;52.084;5.412;2022-09-09T02:02:19;4.83;;;3.13;;
61911;SDS011;49973;52.084;5.412;2022-09-09T02:05:06;4.07;;;2.90;;
61911;SDS011;49973;52.084;5.412;2022-09-09T02:07:42;5.47;;;2.90;;
61911;SDS011;49973;52.084;5.412;2022-09-09T02:10:28;9.70;;;3.43;;
61911;SDS011;49973;52.084;5.412;2022-09-09T02:13:17;7.53;;;3.20;;
61911;SDS011;49973;52.084;5.412;2022-09-09T02:15:49;8.77;;;3.50;;
61911;SDS011;49973;52.084;5.412;2022-09-09T02:18:24;7.43;;;3.43;;
61911;SDS011;49973;52.084;5.412;2022-09-09T02:20:55;6.40;;;3.57;;
61911;SDS011;49973;52.084;5.412;2022-09-09T02:23:25;7.20;;;3.23;;
61911;SDS011;49973;52.084;5.412;2022-09-09T02:25:55;7.37;;;3.27;;
61911;SDS011;49973;52.084;5.412;2022-09-09T02:28:28;7.30;;;3.10;;
61911;SDS011;49973;52.084;5.412;2022-09-09T02:30:58;8.07;;;3.40;;
61911;SDS011;49973;52.084;5.412;2022-09-09T02:33:35;6.53;;;3.57;;
61911;SDS011;49973;52.084;5.412;2022-09-09T02:36:08;6.10;;;3.60;;
61911;SDS011;49973;52.084;5.412;2022-09-09T02:38:40;10.57;;;3.60;;
61911;SDS011;49973;52.084;5.412;2022-09-09T02:41:18;6.00;;;3.10;;
61911;SDS011;49973;52.084;5.412;2022-09-09T02:43:50;11.63;;;4.20;;
61911;SDS011;49973;52.084;5.412;2022-09-09T02:46:23;10.23;;;3.97;;
61911;SDS011;49973;52.084;5.412;2022-09-09T02:49:07;11.60;;;3.87;;
61911;SDS011;49973;52.084;5.412;2022-09-09T02:51:40;7.73;;;4.07;;
61911;SDS011;49973;52.084;5.412;2022-09-09T02:54:17;8.10;;;4.17;;
61911;SDS011;49973;52.084;5.412;2022-09-09T02:56:53;5.60;;;4.27;;
61911;SDS011;49973;52.084;5.412;2022-09-09T02:59:32;16.10;;;4.10;;
61911;SDS011;49973;52.084;5.412;2022-09-09T03:02:01;7.07;;;3.70;;
61911;SDS011;49973;52.084;5.412;2022-09-09T03:04:31;8.27;;;4.17;;
61911;SDS011;49973;52.084;5.412;2022-09-09T03:07:00;7.33;;;4.03;;
61911;SDS011;49973;52.084;5.412;2022-09-09T03:09:30;6.47;;;4.47;;
61911;SDS011;49973;52.084;5.412;2022-09-09T03:11:59;6.57;;;4.40;;
61911;SDS011;49973;52.084;5.412;2022-09-09T03:14:31;6.27;;;4.13;;
61911;SDS011;49973;52.084;5.412;2022-09-09T03:17:00;9.63;;;5.10;;
61911;SDS011;49973;52.084;5.412;2022-09-09T03:19:34;10.50;;;4.20;;
61911;SDS011;49973;52.084;5.412;2022-09-09T03:22:08;11.73;;;4.30;;
61911;SDS011;49973;52.084;5.412;2022-09-09T03:24:40;10.50;;;4.63;;
61911;SDS011;49973;52.084;5.412;2022-09-09T03:27:09;8.77;;;4.40;;
61911;SDS011;49973;52.084;5.412;2022-09-09T03:29:39;9.33;;;4.00;;
61911;SDS011;49973;52.084;5.412;2022-09-09T03:32:13;16.53;;;4.43;;
61911;SDS011;49973;52.084;5.412;2022-09-09T03:34:42;8.80;;;4.60;;
61911;SDS011;49973;52.084;5.412;2022-09-09T03:37:12;6.73;;;4.60;;
61911;SDS011;49973;52.084;5.412;2022-09-09T03:39:41;6.97;;;5.17;;
61911;SDS011;49973;52.084;5.412;2022-09-09T03:42:11;9.20;;;4.30;;
61911;SDS011;49973;52.084;5.412;2022-09-09T03:44:47;10.00;;;4.63;;
61911;SDS011;49973;52.084;5.412;2022-09-09T03:47:18;7.03;;;4.83;;
61911;SDS011;49973;52.084;5.412;2022-09-09T03:49:50;6.47;;;4.53;;
61911;SDS011;49973;52.084;5.412;2022-09-09T03:52:20;9.50;;;4.70;;
61911;SDS011;49973;52.084;5.412;2022-09-09T03:54:52;9.80;;;4.70;;
61911;SDS011;49973;52.084;5.412;2022-09-09T03:57:23;7.53;;;4.83;;
61911;SDS011;49973;52.084;5.412;2022-09-09T03:59:53;8.90;;;4.37;;
61911;SDS011;49973;52.084;5.412;2022-09-09T04:02:22;7.33;;;4.70;;
61911;SDS011;49973;52.084;5.412;2022-09-09T04:04:51;6.17;;;4.33;;
61911;SDS011;49973;52.084;5.412;2022-09-09T04:07:19;7.70;;;4.43;;
61911;SDS011;49973;52.084;5.412;2022-09-09T04:09:48;13.70;;;5.00;;
61911;SDS011;49973;52.084;5.412;2022-09-09T04:12:16;10.43;;;4.67;;
61911;SDS011;49973;52.084;5.412;2022-09-09T04:14:45;8.53;;;4.97;;
61911;SDS011;49973;52.084;5.412;2022-09-09T04:17:15;7.97;;;4.43;;
61911;SDS011;49973;52.084;5.412;2022-09-09T04:19:44;9.83;;;4.67;;
61911;SDS011;49973;52.084;5.412;2022-09-09T04:22:13;9.13;;;4.30;;
61911;SDS011;49973;52.084;5.412;2022-09-09T04:24:42;8.73;;;4.60;;
61911;SDS011;49973;52.084;5.412;2022-09-09T04:27:16;11.93;;;4.37;;
61911;SDS011;49973;52.084;5.412;2022-09-09T04:29:45;8.37;;;4.93;;
61911;SDS011;49973;52.084;5.412;2022-09-09T04:32:15;14.03;;;4.70;;
61911;SDS011;49973;52.084;5.412;2022-09-09T04:34:43;6.40;;;4.60;;
61911;SDS011;49973;52.084;5.412;2022-09-09T04:37:13;6.50;;;4.40;;
61911;SDS011;49973;52.084;5.412;2022-09-09T04:39:42;6.40;;;4.70;;
61911;SDS011;49973;52.084;5.412;2022-09-09T04:42:12;9.00;;;4.47;;
61911;SDS011;49973;52.084;5.412;2022-09-09T04:44:41;12.20;;;4.77;;
61911;SDS011;49973;52.084;5.412;2022-09-09T04:47:10;8.30;;;4.47;;
61911;SDS011;49973;52.084;5.412;2022-09-09T04:49:42;7.57;;;3.97;;
61911;SDS011;49973;52.084;5.412;2022-09-09T04:52:11;13.63;;;3.93;;
61911;SDS011;49973;52.084;5.412;2022-09-09T04:54:39;7.80;;;4.20;;
61911;SDS011;49973;52.084;5.412;2022-09-09T04:57:10;13.90;;;4.67;;
61911;SDS011;49973;52.084;5.412;2022-09-09T04:59:44;11.73;;;4.73;;
61911;SDS011;49973;52.084;5.412;2022-09-09T05:02:14;9.80;;;4.37;;
61911;SDS011;49973;52.084;5.412;2022-09-09T05:04:44;11.50;;;4.27;;
61911;SDS011;49973;52.084;5.412;2022-09-09T05:07:13;10.33;;;4.10;;
61911;SDS011;49973;52.084;5.412;2022-09-09T05:09:41;5.57;;;3.80;;
61911;SDS011;49973;52.084;5.412;2022-09-09T05:12:11;6.03;;;3.87;;
61911;SDS011;49973;52.084;5.412;2022-09-09T05:14:47;6.33;;;3.87;;
61911;SDS011;49973;52.084;5.412;2022-09-09T05:17:15;9.73;;;3.73;;
61911;SDS011;49973;52.084;5.412;2022-09-09T05:19:46;10.70;;;4.30;;
61911;SDS011;49973;52.084;5.412;2022-09-09T05:22:18;10.07;;;3.90;;
61911;SDS011;49973;52.084;5.412;2022-09-09T05:24:48;8.60;;;3.73;;
61911;SDS011;49973;52.084;5.412;2022-09-09T05:27:18;5.73;;;3.23;;
61911;SDS011;49973;52.084;5.412;2022-09-09T05:29:48;9.63;;;3.67;;
61911;SDS011;49973;52.084;5.412;2022-09-09T05:32:16;6.67;;;3.53;;
61911;SDS011;49973;52.084;5.412;2022-09-09T05:34:49;14.50;;;3.90;;
61911;SDS011;49973;52.084;5.412;2022-09-09T05:37:18;8.07;;;3.20;;
61911;SDS011;49973;52.084;5.412;2022-09-09T05:39:48;7.97;;;3.50;;
61911;SDS011;49973;52.084;5.412;2022-09-09T05:42:17;8.23;;;3.87;;
61911;SDS011;49973;52.084;5.412;2022-09-09T05:44:45;13.43;;;4.13;;
61911;SDS011;49973;52.084;5.412;2022-09-09T05:47:14;9.10;;;3.83;;
61911;SDS011;49973;52.084;5.412;2022-09-09T05:49:43;10.60;;;3.80;;
61911;SDS011;49973;52.084;5.412;2022-09-09T05:52:12;9.97;;;3.80;;
61911;SDS011;49973;52.084;5.412;2022-09-09T05:54:41;18.57;;;3.80;;
61911;SDS011;49973;52.084;5.412;2022-09-09T05:57:10;5.80;;;3.67;;
61911;SDS011;49973;52.084;5.412;2022-09-09T05:59:38;5.77;;;3.00;;
61911;SDS011;49973;52.084;5.412;2022-09-09T06:02:07;20.13;;;4.60;;
61911;SDS011;49973;52.084;5.412;2022-09-09T06:04:37;16.57;;;3.73;;
61911;SDS011;49973;52.084;5.412;2022-09-09T06:07:05;6.77;;;3.70;;
61911;SDS011;49973;52.084;5.412;2022-09-09T06:09:36;8.30;;;3.50;;
61911;SDS011;49973;52.084;5.412;2022-09-09T06:12:06;13.67;;;3.90;;
61911;SDS011;49973;52.084;5.412;2022-09-09T06:14:36;7.33;;;3.50;;
61911;SDS011;49973;52.084;5.412;2022-09-09T06:17:09;11.90;;;3.77;;
61911;SDS011;49973;52.084;5.412;2022-09-09T06:19:37;17.87;;;3.40;;
61911;SDS011;49973;52.084;5.412;2022-09-09T06:22:06;5.63;;;3.00;;
61911;SDS011;49973;52.084;5.412;2022-09-09T06:24:37;12.23;;;3.97;;
61911;SDS011;49973;52.084;5.412;2022-09-09T06:27:06;6.97;;;3.67;;
61911;SDS011;49973;52.084;5.412;2022-09-09T06:29:36;7.23;;;2.93;;
61911;SDS011;49973;52.084;5.412;2022-09-09T06:32:04;6.53;;;2.70;;
61911;SDS011;49973;52.084;5.412;2022-09-09T06:34:35;10.00;;;2.93;;
61911;SDS011;49973;52.084;5.412;2022-09-09T06:37:04;6.23;;;2.67;;
61911;SDS011;49973;52.084;5.412;2022-09-09T06:39:39;8.20;;;3.60;;
61911;SDS011;49973;52.084;5.412;2022-09-09T06:42:08;7.97;;;2.90;;
61911;SDS011;49973;52.084;5.412;2022-09-09T06:44:55;5.60;;;2.33;;
61911;SDS011;49973;52.084;5.412;2022-09-09T06:47:34;7.47;;;2.70;;
61911;SDS011;49973;52.084;5.412;2022-09-09T06:50:03;4.90;;;2.83;;
61911;SDS011;49973;52.084;5.412;2022-09-09T06:52:34;12.50;;;2.30;;
61911;SDS011;49973;52.084;5.412;2022-09-09T06:55:04;8.07;;;2.13;;
61911;SDS011;49973;52.084;5.412;2022-09-09T06:57:34;6.20;;;1.90;;
61911;SDS011;49973;52.084;5.412;2022-09-09T07:00:15;9.23;;;2.00;;
61911;SDS011;49973;52.084;5.412;2022-09-09T07:02:45;3.67;;;1.97;;
61911;SDS011;49973;52.084;5.412;2022-09-09T07:05:13;6.33;;;2.50;;
61911;SDS011;49973;52.084;5.412;2022-09-09T07:07:44;9.43;;;2.13;;
61911;SDS011;49973;52.084;5.412;2022-09-09T07:10:16;4.93;;;2.03;;
61911;SDS011;49973;52.084;5.412;2022-09-09T07:12:45;9.13;;;2.20;;
61911;SDS011;49973;52.084;5.412;2022-09-09T07:15:20;4.23;;;1.87;;
61911;SDS011;49973;52.084;5.412;2022-09-09T07:17:54;5.73;;;1.57;;
61911;SDS011;49973;52.084;5.412;2022-09-09T07:20:23;4.50;;;1.47;;
61911;SDS011;49973;52.084;5.412;2022-09-09T07:22:54;7.43;;;1.90;;
61911;SDS011;49973;52.084;5.412;2022-09-09T07:25:24;7.97;;;1.47;;
61911;SDS011;49973;52.084;5.412;2022-09-09T07:27:54;7.27;;;2.03;;
61911;SDS011;49973;52.084;5.412;2022-09-09T07:30:25;9.90;;;2.50;;
61911;SDS011;49973;52.084;5.412;2022-09-09T07:32:54;10.47;;;2.30;;
61911;SDS011;49973;52.084;5.412;2022-09-09T07:35:25;6.13;;;2.40;;
61911;SDS011;49973;52.084;5.412;2022-09-09T07:37:53;9.53;;;2.27;;
61911;SDS011;49973;52.084;5.412;2022-09-09T07:40:24;6.63;;;1.80;;
61911;SDS011;49973;52.084;5.412;2022-09-09T07:42:53;5.07;;;2.33;;
61911;SDS011;49973;52.084;5.412;2022-09-09T07:45:21;9.40;;;2.60;;
61911;SDS011;49973;52.084;5.412;2022-09-09T07:47:50;7.93;;;2.27;;
61911;SDS011;49973;52.084;5.412;2022-09-09T07:50:19;8.80;;;2.23;;
61911;SDS011;49973;52.084;5.412;2022-09-09T07:52:49;8.37;;;2.63;;
61911;SDS011;49973;52.084;5.412;2022-09-09T07:55:18;7.10;;;1.80;;
61911;SDS011;49973;52.084;5.412;2022-09-09T07:57:48;10.37;;;2.23;;
61911;SDS011;49973;52.084;5.412;2022-09-09T08:00:17;14.90;;;2.23;;
61911;SDS011;49973;52.084;5.412;2022-09-09T08:02:52;10.13;;;2.13;;
61911;SDS011;49973;52.084;5.412;2022-09-09T08:05:21;9.13;;;2.23;;
61911;SDS011;49973;52.084;5.412;2022-09-09T08:07:50;9.53;;;1.80;;
61911;SDS011;49973;52.084;5.412;2022-09-09T08:10:19;6.27;;;1.87;;
61911;SDS011;49973;52.084;5.412;2022-09-09T08:12:50;7.80;;;2.23;;
61911;SDS011;49973;52.084;5.412;2022-09-09T08:15:39;5.93;;;1.63;;
61911;SDS011;49973;52.084;5.412;2022-09-09T08:18:08;9.13;;;2.10;;
61911;SDS011;49973;52.084;5.412;2022-09-09T08:20:37;4.63;;;1.70;;
61911;SDS011;49973;52.084;5.412;2022-09-09T08:23:06;4.90;;;1.87;;
61911;SDS011;49973;52.084;5.412;2022-09-09T08:25:35;7.37;;;2.03;;
61911;SDS011;49973;52.084;5.412;2022-09-09T08:28:04;9.57;;;2.00;;
61911;SDS011;49973;52.084;5.412;2022-09-09T08:30:33;10.13;;;2.20;;
61911;SDS011;49973;52.084;5.412;2022-09-09T08:33:02;8.50;;;2.10;;
61911;SDS011;49973;52.084;5.412;2022-09-09T08:35:30;5.30;;;1.83;;
61911;SDS011;49973;52.084;5.412;2022-09-09T08:37:59;8.90;;;2.10;;
61911;SDS011;49973;52.084;5.412;2022-09-09T08:40:32;6.87;;;2.33;;
61911;SDS011;49973;52.084;5.412;2022-09-09T08:43:09;5.03;;;1.80;;
61911;SDS011;49973;52.084;5.412;2022-09-09T08:45:41;3.00;;;1.67;;
61911;SDS011;49973;52.084;5.412;2022-09-09T08:48:22;6.23;;;2.00;;
61911;SDS011;49973;52.084;5.412;2022-09-09T08:51:05;11.43;;;2.03;;
61911;SDS011;49973;52.084;5.412;2022-09-09T08:53:38;3.37;;;1.83;;
61911;SDS011;49973;52.084;5.412;2022-09-09T08:56:12;6.10;;;1.87;;
61911;SDS011;49973;52.084;5.412;2022-09-09T08:58:48;6.07;;;2.37;;
61911;SDS011;49973;52.084;5.412;2022-09-09T09:01:40;8.87;;;2.03;;
61911;SDS011;49973;52.084;5.412;2022-09-09T09:04:29;7.27;;;2.03;;
61911;SDS011;49973;52.084;5.412;2022-09-09T09:07:15;3.77;;;1.53;;
61911;SDS011;49973;52.084;5.412;2022-09-09T09:10:00;10.27;;;1.93;;
61911;SDS011;49973;52.084;5.412;2022-09-09T09:12:55;5.00;;;2.33;;
61911;SDS011;49973;52.084;5.412;2022-09-09T09:15:25;3.00;;;1.33;;
61911;SDS011;49973;52.084;5.412;2022-09-09T09:17:59;8.90;;;1.83;;
61911;SDS011;49973;52.084;5.412;2022-09-09T09:20:28;8.53;;;2.03;;
61911;SDS011;49973;52.084;5.412;2022-09-09T09:23:05;9.07;;;1.90;;
61911;SDS011;49973;52.084;5.412;2022-09-09T09:25:35;4.85;;;1.70;;
61911;SDS011;49973;52.084;5.412;2022-09-09T09:28:10;5.23;;;1.57;;
61911;SDS011;49973;52.084;5.412;2022-09-09T09:30:49;4.90;;;1.77;;
61911;SDS011;49973;52.084;5.412;2022-09-09T09:33:23;3.27;;;1.80;;
61911;SDS011;49973;52.084;5.412;2022-09-09T09:35:55;8.40;;;2.27;;
61911;SDS011;49973;52.084;5.412;2022-09-09T09:38:27;7.33;;;2.67;;
61911;SDS011;49973;52.084;5.412;2022-09-09T09:41:16;2.00;;;1.80;;
61911;SDS011;49973;52.084;5.412;2022-09-09T09:43:52;4.57;;;1.80;;
61911;SDS011;49973;52.084;5.412;2022-09-09T09:46:24;8.53;;;1.73;;
61911;SDS011;49973;52.084;5.412;2022-09-09T09:48:59;4.07;;;1.63;;
61911;SDS011;49973;52.084;5.412;2022-09-09T09:51:30;5.93;;;1.77;;
61911;SDS011;49973;52.084;5.412;2022-09-09T09:54:03;4.27;;;1.90;;
61911;SDS011;49973;52.084;5.412;2022-09-09T09:56:47;9.03;;;1.80;;
61911;SDS011;49973;52.084;5.412;2022-09-09T09:59:23;7.73;;;1.43;;
61911;SDS011;49973;52.084;5.412;2022-09-09T10:02:16;5.47;;;1.43;;
61911;SDS011;49973;52.084;5.412;2022-09-09T10:05:00;4.97;;;1.50;;
61911;SDS011;49973;52.084;5.412;2022-09-09T10:07:30;5.47;;;2.03;;
61911;SDS011;49973;52.084;5.412;2022-09-09T10:10:00;4.30;;;1.30;;
61911;SDS011;49973;52.084;5.412;2022-09-09T10:12:31;8.23;;;2.13;;
61911;SDS011;49973;52.084;5.412;2022-09-09T10:15:15;2.37;;;1.30;;
61911;SDS011;49973;52.084;5.412;2022-09-09T10:18:00;6.70;;;1.40;;
61911;SDS011;49973;52.084;5.412;2022-09-09T10:20:39;5.87;;;1.97;;
61911;SDS011;49973;52.084;5.412;2022-09-09T10:23:20;5.77;;;1.73;;
61911;SDS011;49973;52.084;5.412;2022-09-09T10:26:00;4.53;;;1.43;;
61911;SDS011;49973;52.084;5.412;2022-09-09T10:31:52;3.57;;;1.97;;
61911;SDS011;49973;52.084;5.412;2022-09-09T10:34:36;6.33;;;1.80;;
61911;SDS011;49973;52.084;5.412;2022-09-09T10:37:21;9.80;;;2.60;;
61911;SDS011;49973;52.084;5.412;2022-09-09T10:40:08;10.13;;;1.97;;
61911;SDS011;49973;52.084;5.412;2022-09-09T10:42:51;8.70;;;1.97;;
61911;SDS011;49973;52.084;5.412;2022-09-09T10:45:26;5.43;;;2.10;;
61911;SDS011;49973;52.084;5.412;2022-09-09T10:48:08;14.90;;;2.60;;
61911;SDS011;49973;52.084;5.412;2022-09-09T10:50:50;2.00;;;1.70;;
61911;SDS011;49973;52.084;5.412;2022-09-09T10:53:36;9.23;;;2.80;;
61911;SDS011;49973;52.084;5.412;2022-09-09T10:56:12;4.63;;;2.27;;
61911;SDS011;49973;52.084;5.412;2022-09-09T10:58:46;5.60;;;2.27;;
61911;SDS011;49973;52.084;5.412;2022-09-09T11:01:19;9.70;;;2.70;;
61911;SDS011;49973;52.084;5.412;2022-09-09T11:03:53;6.67;;;2.17;;
61911;SDS011;49973;52.084;5.412;2022-09-09T11:06:28;10.00;;;2.13;;
61911;SDS011;49973;52.084;5.412;2022-09-09T11:09:02;4.00;;;1.60;;
61911;SDS011;49973;52.084;5.412;2022-09-09T11:11:34;6.60;;;1.87;;
61911;SDS011;49973;52.084;5.412;2022-09-09T11:14:15;6.30;;;2.47;;
61911;SDS011;49973;52.084;5.412;2022-09-09T11:16:49;2.63;;;1.80;;
61911;SDS011;49973;52.084;5.412;2022-09-09T11:19:21;5.23;;;2.00;;
61911;SDS011;49973;52.084;5.412;2022-09-09T11:21:57;8.53;;;1.43;;
61911;SDS011;49973;52.084;5.412;2022-09-09T11:24:27;5.13;;;2.03;;
61911;SDS011;49973;52.084;5.412;2022-09-09T11:27:01;2.70;;;1.53;;
61911;SDS011;49973;52.084;5.412;2022-09-09T11:33:18;3.37;;;1.50;;
61911;SDS011;49973;52.084;5.412;2022-09-09T11:36:16;3.50;;;1.37;;
61911;SDS011;49973;52.084;5.412;2022-09-09T11:39:16;6.70;;;2.47;;
61911;SDS011;49973;52.084;5.412;2022-09-09T11:42:05;11.87;;;1.97;;
61911;SDS011;49973;52.084;5.412;2022-09-09T11:44:35;6.47;;;2.07;;
61911;SDS011;49973;52.084;5.412;2022-09-09T11:47:15;4.23;;;1.77;;
61911;SDS011;49973;52.084;5.412;2022-09-09T11:49:51;4.53;;;1.60;;
61911;SDS011;49973;52.084;5.412;2022-09-09T11:52:21;7.27;;;1.80;;
61911;SDS011;49973;52.084;5.412;2022-09-09T11:54:55;5.63;;;1.53;;
61911;SDS011;49973;52.084;5.412;2022-09-09T11:57:32;6.20;;;1.93;;
61911;SDS011;49973;52.084;5.412;2022-09-09T12:00:03;11.03;;;2.17;;
61911;SDS011;49973;52.084;5.412;2022-09-09T12:02:37;8.30;;;2.30;;
61911;SDS011;49973;52.084;5.412;2022-09-09T12:05:17;7.20;;;2.20;;
61911;SDS011;49973;52.084;5.412;2022-09-09T12:07:49;3.57;;;2.17;;
61911;SDS011;49973;52.084;5.412;2022-09-09T12:10:23;4.97;;;2.03;;
61911;SDS011;49973;52.084;5.412;2022-09-09T12:12:54;6.37;;;2.10;;
61911;SDS011;49973;52.084;5.412;2022-09-09T12:15:24;8.33;;;2.10;;
61911;SDS011;49973;52.084;5.412;2022-09-09T12:17:56;5.77;;;1.97;;
61911;SDS011;49973;52.084;5.412;2022-09-09T12:20:33;7.90;;;2.03;;
61911;SDS011;49973;52.084;5.412;2022-09-09T12:23:15;11.13;;;2.57;;
61911;SDS011;49973;52.084;5.412;2022-09-09T12:25:59;6.30;;;2.33;;
61911;SDS011;49973;52.084;5.412;2022-09-09T12:28:40;11.90;;;2.60;;
61911;SDS011;49973;52.084;5.412;2022-09-09T12:31:15;5.07;;;2.73;;
61911;SDS011;49973;52.084;5.412;2022-09-09T12:33:51;4.93;;;2.57;;
61911;SDS011;49973;52.084;5.412;2022-09-09T12:36:20;13.37;;;3.27;;
61911;SDS011;49973;52.084;5.412;2022-09-09T12:38:52;6.50;;;2.57;;
61911;SDS011;49973;52.084;5.412;2022-09-09T12:41:25;4.57;;;2.30;;
61911;SDS011;49973;52.084;5.412;2022-09-09T12:44:02;10.87;;;2.40;;
61911;SDS011;49973;52.084;5.412;2022-09-09T12:46:33;4.93;;;2.13;;
61911;SDS011;49973;52.084;5.412;2022-09-09T12:49:05;7.63;;;2.93;;
61911;SDS011;49973;52.084;5.412;2022-09-09T12:51:54;5.57;;;2.07;;
61911;SDS011;49973;52.084;5.412;2022-09-09T12:54:23;6.70;;;2.20;;
61911;SDS011;49973;52.084;5.412;2022-09-09T12:56:53;4.03;;;2.00;;
61911;SDS011;49973;52.084;5.412;2022-09-09T12:59:23;9.43;;;2.57;;
61911;SDS011;49973;52.084;5.412;2022-09-09T13:01:56;3.37;;;1.97;;
61911;SDS011;49973;52.084;5.412;2022-09-09T13:04:25;6.17;;;1.70;;
61911;SDS011;49973;52.084;5.412;2022-09-09T13:07:05;5.33;;;1.60;;
61911;SDS011;49973;52.084;5.412;2022-09-09T13:09:38;5.20;;;1.60;;
61911;SDS011;49973;52.084;5.412;2022-09-09T13:12:10;3.23;;;1.60;;
61911;SDS011;49973;52.084;5.412;2022-09-09T13:14:43;4.13;;;2.23;;
61911;SDS011;49973;52.084;5.412;2022-09-09T13:17:18;3.30;;;1.70;;
61911;SDS011;49973;52.084;5.412;2022-09-09T13:19:49;3.33;;;1.73;;
61911;SDS011;49973;52.084;5.412;2022-09-09T13:22:20;6.67;;;2.23;;
61911;SDS011;49973;52.084;5.412;2022-09-09T13:24:58;4.43;;;1.80;;
61911;SDS011;49973;52.084;5.412;2022-09-09T13:27:31;7.03;;;1.97;;
61911;SDS011;49973;52.084;5.412;2022-09-09T13:30:01;9.20;;;2.70;;
61911;SDS011;49973;52.084;5.412;2022-09-09T13:32:29;3.93;;;2.27;;
61911;SDS011;49973;52.084;5.412;2022-09-09T13:34:59;7.60;;;1.87;;
61911;SDS011;49973;52.084;5.412;2022-09-09T13:37:30;6.07;;;2.03;;
61911;SDS011;49973;52.084;5.412;2022-09-09T13:40:02;2.40;;;1.63;;
61911;SDS011;49973;52.084;5.412;2022-09-09T13:42:35;4.10;;;2.13;;
61911;SDS011;49973;52.084;5.412;2022-09-09T13:45:14;5.83;;;2.07;;
61911;SDS011;49973;52.084;5.412;2022-09-09T13:47:47;6.60;;;2.30;;
61911;SDS011;49973;52.084;5.412;2022-09-09T13:50:19;3.77;;;1.70;;
61911;SDS011;49973;52.084;5.412;2022-09-09T13:52:49;5.03;;;2.17;;
61911;SDS011;49973;52.084;5.412;2022-09-09T13:55:20;4.23;;;2.20;;
61911;SDS011;49973;52.084;5.412;2022-09-09T13:57:52;3.60;;;1.80;;
61911;SDS011;49973;52.084;5.412;2022-09-09T14:00:22;5.03;;;1.73;;
61911;SDS011;49973;52.084;5.412;2022-09-09T14:02:52;6.13;;;1.93;;
61911;SDS011;49973;52.084;5.412;2022-09-09T14:05:21;7.10;;;1.90;;
61911;SDS011;49973;52.084;5.412;2022-09-09T14:07:50;5.00;;;2.33;;
61911;SDS011;49973;52.084;5.412;2022-09-09T14:10:19;4.10;;;2.43;;
61911;SDS011;49973;52.084;5.412;2022-09-09T14:12:49;4.37;;;2.00;;
61911;SDS011;49973;52.084;5.412;2022-09-09T14:15:19;6.40;;;2.07;;
61911;SDS011;49973;52.084;5.412;2022-09-09T14:17:48;6.33;;;2.30;;
61911;SDS011;49973;52.084;5.412;2022-09-09T14:20:18;4.37;;;1.70;;
61911;SDS011;49973;52.084;5.412;2022-09-09T14:22:47;7.90;;;2.17;;
61911;SDS011;49973;52.084;5.412;2022-09-09T14:25:15;6.73;;;2.13;;
61911;SDS011;49973;52.084;5.412;2022-09-09T14:27:44;5.90;;;1.87;;
61911;SDS011;49973;52.084;5.412;2022-09-09T14:30:13;2.70;;;1.90;;
61911;SDS011;49973;52.084;5.412;2022-09-09T14:32:42;5.33;;;1.90;;
61911;SDS011;49973;52.084;5.412;2022-09-09T14:35:11;5.03;;;2.20;;
61911;SDS011;49973;52.084;5.412;2022-09-09T14:37:39;8.93;;;2.47;;
61911;SDS011;49973;52.084;5.412;2022-09-09T14:40:08;2.87;;;1.83;;
61911;SDS011;49973;52.084;5.412;2022-09-09T14:42:38;2.17;;;1.80;;
61911;SDS011;49973;52.084;5.412;2022-09-09T14:45:07;4.43;;;2.17;;
61911;SDS011;49973;52.084;5.412;2022-09-09T14:47:36;3.00;;;2.00;;
61911;SDS011;49973;52.084;5.412;2022-09-09T14:50:06;5.20;;;2.50;;
61911;SDS011;49973;52.084;5.412;2022-09-09T14:52:35;9.17;;;2.10;;
61911;SDS011;49973;52.084;5.412;2022-09-09T14:55:04;5.83;;;2.60;;
61911;SDS011;49973;52.084;5.412;2022-09-09T14:57:33;10.97;;;3.53;;
61911;SDS011;49973;52.084;5.412;2022-09-09T15:00:02;4.70;;;2.57;;
61911;SDS011;49973;52.084;5.412;2022-09-09T15:02:32;6.07;;;2.57;;
61911;SDS011;49973;52.084;5.412;2022-09-09T15:05:00;9.20;;;3.23;;
61911;SDS011;49973;52.084;5.412;2022-09-09T15:07:30;5.63;;;3.13;;
61911;SDS011;49973;52.084;5.412;2022-09-09T15:09:59;5.13;;;3.10;;
61911;SDS011;49973;52.084;5.412;2022-09-09T15:12:27;5.07;;;3.10;;
61911;SDS011;49973;52.084;5.412;2022-09-09T15:14:55;3.60;;;2.77;;
61911;SDS011;49973;52.084;5.412;2022-09-09T15:17:24;4.10;;;2.07;;
61911;SDS011;49973;52.084;5.412;2022-09-09T15:19:53;5.43;;;1.70;;
61911;SDS011;49973;52.084;5.412;2022-09-09T15:22:22;3.13;;;1.30;;
61911;SDS011;49973;52.084;5.412;2022-09-09T15:24:52;3.90;;;1.30;;
61911;SDS011;49973;52.084;5.412;2022-09-09T15:27:20;1.20;;;1.10;;
61911;SDS011;49973;52.084;5.412;2022-09-09T15:29:49;2.93;;;1.13;;
61911;SDS011;49973;52.084;5.412;2022-09-09T15:32:18;1.80;;;1.30;;